Highland-University Park's Hourly Summary for Tuesday, May 15, 2018
Hour Temp
(f)
RH
(%)
Solar Rad.
(MJ/m2)
Rainfall
(in)
Wind
(mph)
5/15/2018 12:00 AM 79 66 0 0 2.08
5/15/2018 1:00 AM 78 68 0 0 2.34
5/15/2018 2:00 AM 77 71 0 0 2.67
5/15/2018 3:00 AM 76 71 0 0 1.88
5/15/2018 4:00 AM 75 73 0 0 1.45
5/15/2018 5:00 AM 75 73 0 0 0.97
5/15/2018 6:00 AM 75 73 0 0 0.74
5/15/2018 7:00 AM 75 75 0.02 0 0.36
5/15/2018 8:00 AM 75 76 0.18 0 0.75
5/15/2018 9:00 AM 75 76 0.39 0 2.76
5/15/2018 10:00 AM 74 77 0.3 0 2.81
5/15/2018 11:00 AM 74 77 0.68 0 3.79
5/15/2018 12:00 PM 75 78 0.94 0 4.37
5/15/2018 1:00 PM 77 73 1.3 0 4.12
5/15/2018 2:00 PM 79 66 1.55 0 3.13
5/15/2018 3:00 PM 83 54 2.67 0 2.9
5/15/2018 4:00 PM 86 49 2.76 0 2.84
5/15/2018 5:00 PM 86 49 1.16 0 1.68
5/15/2018 6:00 PM 83 55 0.36 0 2.06
5/15/2018 7:00 PM 83 55 0.46 0 1.92
5/15/2018 8:00 PM 82 55 0.15 0 2.14
5/15/2018 9:00 PM 77 61 0.01 0 2.56
5/15/2018 10:00 PM 75 65 0 0 1.61
5/15/2018 11:00 PM 73 70 0 0 0.55
Data Summary 77 66 12.93 0.00 2.19